createdAt,value
2022-12-05T00:00:27.944Z,1004.02
2022-12-05T00:01:28.133Z,1004.07
2022-12-05T00:02:27.969Z,1004.14
2022-12-05T00:03:27.914Z,1004.15
2022-12-05T00:04:27.966Z,1004.04
2022-12-05T00:05:27.894Z,1004.06
2022-12-05T00:06:28.090Z,1004.06
2022-12-05T00:07:27.863Z,1004.06
2022-12-05T00:08:27.863Z,1004.07
2022-12-05T00:09:27.840Z,1004.05
2022-12-05T00:10:27.832Z,1004.08
2022-12-05T00:11:27.819Z,1004.10
2022-12-05T00:12:27.833Z,1004.12
2022-12-05T00:13:27.792Z,1004.06
2022-12-05T00:14:27.776Z,1004.19
2022-12-05T00:15:27.762Z,1004.15
2022-12-05T00:16:27.824Z,1004.21
2022-12-05T00:17:27.982Z,1004.19
2022-12-05T00:18:27.940Z,1004.13
2022-12-05T00:19:27.711Z,1004.20
2022-12-05T00:20:27.707Z,1004.16
2022-12-05T00:21:27.698Z,1004.21
2022-12-05T00:22:27.859Z,1004.21
2022-12-05T00:23:27.668Z,1004.21
2022-12-05T00:24:27.678Z,1004.22
2022-12-05T00:25:27.648Z,1004.22
2022-12-05T00:26:27.829Z,1004.24
2022-12-05T00:27:27.618Z,1004.21
2022-12-05T00:28:27.788Z,1004.25
2022-12-05T00:29:27.808Z,1004.24
2022-12-05T00:30:27.579Z,1004.22
2022-12-05T00:31:27.648Z,1004.24
2022-12-05T00:32:27.556Z,1004.28
2022-12-05T00:33:27.538Z,1004.22
2022-12-05T00:34:27.746Z,1004.27
2022-12-05T00:35:27.516Z,1004.32
2022-12-05T00:36:27.508Z,1004.29
2022-12-05T00:37:27.487Z,1004.36
2022-12-05T00:38:27.476Z,1004.25
2022-12-05T00:39:27.665Z,1004.23
2022-12-05T00:40:27.454Z,1004.23
2022-12-05T00:41:27.444Z,1004.19
2022-12-05T00:42:27.424Z,1004.24
2022-12-05T00:43:27.414Z,1004.26
2022-12-05T00:44:27.623Z,1004.20
2022-12-05T00:45:27.400Z,1004.27
2022-12-05T00:46:27.428Z,1004.22
2022-12-05T00:47:27.608Z,1004.12
2022-12-05T00:48:27.351Z,1004.21
2022-12-05T00:49:27.345Z,1004.16
2022-12-05T00:50:27.330Z,1004.10
2022-12-05T00:51:27.312Z,1004.08
2022-12-05T00:52:27.512Z,1004.12
2022-12-05T00:53:27.305Z,1004.15
2022-12-05T00:54:27.271Z,1004.08
2022-12-05T00:55:27.260Z,1004.15
2022-12-05T00:56:27.433Z,1004.14
2022-12-05T00:57:27.240Z,1004.12
2022-12-05T00:58:27.231Z,1004.07
2022-12-05T00:59:27.430Z,1004.03
2022-12-05T01:00:27.199Z,1004.08
2022-12-05T01:01:27.258Z,1004.02
2022-12-05T01:02:27.185Z,1004.00
2022-12-05T01:03:27.258Z,1004.10
2022-12-05T01:04:27.170Z,1003.93
2022-12-05T01:05:27.140Z,1004.02
2022-12-05T01:06:27.118Z,1004.05
2022-12-05T01:07:27.168Z,1004.04
2022-12-05T01:08:27.099Z,1004.02
2022-12-05T01:09:27.307Z,1004.09
2022-12-05T01:10:27.078Z,1004.01
2022-12-05T01:11:27.070Z,1004.13
2022-12-05T01:12:27.075Z,1004.03
2022-12-05T01:13:27.036Z,1004.03
2022-12-05T01:14:27.033Z,1004.00
2022-12-05T01:15:27.206Z,1004.06
2022-12-05T01:16:27.278Z,1004.10
2022-12-05T01:17:27.002Z,1003.97
2022-12-05T01:18:26.984Z,1004.04
2022-12-05T01:19:26.966Z,1004.07
2022-12-05T01:20:27.145Z,1004.05
2022-12-05T01:21:26.936Z,1003.99
2022-12-05T01:22:26.936Z,1004.01
2022-12-05T01:23:26.915Z,1004.03
2022-12-05T01:24:26.915Z,1004.06
2022-12-05T01:25:26.922Z,1004.06
2022-12-05T01:26:26.882Z,1004.05
2022-12-05T01:27:27.082Z,1004.05
2022-12-05T01:28:26.891Z,1004.09
2022-12-05T01:29:26.836Z,1004.10
2022-12-05T01:30:26.836Z,1004.08
2022-12-05T01:31:26.872Z,1004.12
2022-12-05T01:32:27.001Z,1004.12
2022-12-05T01:33:26.807Z,1004.12
2022-12-05T01:34:26.781Z,1004.07
2022-12-05T01:35:26.971Z,1004.06
2022-12-05T01:36:26.751Z,1004.09
2022-12-05T01:37:26.742Z,1004.12
2022-12-05T01:38:26.742Z,1004.00
2022-12-05T01:39:26.711Z,1004.09
2022-12-05T01:40:26.909Z,1004.11
2022-12-05T01:41:26.681Z,1004.03
2022-12-05T01:42:26.732Z,1004.11
2022-12-05T01:43:26.669Z,1004.16
2022-12-05T01:44:26.858Z,1004.07
2022-12-05T01:45:26.818Z,1004.16
2022-12-05T01:46:26.691Z,1004.15
2022-12-05T01:47:26.829Z,1004.15
2022-12-05T01:48:26.601Z,1004.06
2022-12-05T01:49:26.587Z,1004.17
2022-12-05T01:50:26.580Z,1004.15
2022-12-05T01:51:26.572Z,1004.16
2022-12-05T01:52:26.738Z,1004.16
2022-12-05T01:53:26.536Z,1004.20
2022-12-05T01:54:26.536Z,1004.14
2022-12-05T01:55:26.504Z,1004.24
2022-12-05T01:56:26.512Z,1004.18
2022-12-05T01:57:26.698Z,1004.15
2022-12-05T01:58:26.487Z,1004.18
2022-12-05T01:59:26.465Z,1004.23
2022-12-05T02:00:26.484Z,1004.17
2022-12-05T02:01:26.562Z,1004.21
2022-12-05T02:02:26.495Z,1004.20
2022-12-05T02:03:26.423Z,1004.22
2022-12-05T02:04:26.408Z,1004.23
2022-12-05T02:05:26.691Z,1004.23
2022-12-05T02:06:26.381Z,1004.29
2022-12-05T02:07:26.377Z,1004.33
2022-12-05T02:08:26.352Z,1004.21
2022-12-05T02:09:26.343Z,1004.35
2022-12-05T02:10:26.523Z,1004.25
2022-12-05T02:11:27.034Z,1004.32
2022-12-05T02:12:26.313Z,1004.24
2022-12-05T02:13:27.084Z,1004.27
2022-12-05T02:14:26.321Z,1004.26
2022-12-05T02:15:26.462Z,1004.29
2022-12-05T02:16:26.294Z,1004.27
2022-12-05T02:17:26.244Z,1004.33
2022-12-05T02:18:26.219Z,1004.31
2022-12-05T02:19:26.229Z,1004.34
2022-12-05T02:20:26.218Z,1004.31
2022-12-05T02:21:26.397Z,1004.36
2022-12-05T02:22:26.187Z,1004.37
2022-12-05T02:23:26.157Z,1004.33
2022-12-05T02:24:26.158Z,1004.32
2022-12-05T02:25:26.137Z,1004.31
2022-12-05T02:26:26.146Z,1004.28
2022-12-05T02:27:26.866Z,1004.28
2022-12-05T02:28:26.098Z,1004.32
2022-12-05T02:29:26.086Z,1004.30
2022-12-05T02:30:26.086Z,1004.33
2022-12-05T02:31:26.319Z,1004.31
2022-12-05T02:32:26.058Z,1004.30
2022-12-05T02:33:26.056Z,1004.34
2022-12-05T02:34:26.030Z,1004.23
2022-12-05T02:35:26.015Z,1004.28
2022-12-05T02:36:26.196Z,1004.30
2022-12-05T02:37:25.986Z,1004.27
2022-12-05T02:38:25.977Z,1004.24
2022-12-05T02:39:25.965Z,1004.29
2022-12-05T02:40:25.956Z,1004.33
2022-12-05T02:41:26.143Z,1004.30
2022-12-05T02:42:25.934Z,1004.26
2022-12-05T02:43:26.142Z,1004.28
2022-12-05T02:44:25.904Z,1004.26
2022-12-05T02:45:25.883Z,1004.26
2022-12-05T02:46:25.985Z,1004.27
2022-12-05T02:47:25.853Z,1004.28
2022-12-05T02:48:25.871Z,1004.29
2022-12-05T02:49:26.040Z,1004.32
2022-12-05T02:50:25.833Z,1004.33
2022-12-05T02:51:25.811Z,1004.32
2022-12-05T02:52:25.800Z,1004.38
2022-12-05T02:53:25.990Z,1004.41
2022-12-05T02:54:25.780Z,1004.40
2022-12-05T02:55:25.770Z,1004.34
2022-12-05T02:56:25.751Z,1004.37
2022-12-05T02:57:25.937Z,1004.26
2022-12-05T02:58:25.719Z,1004.33
2022-12-05T02:59:25.932Z,1004.38
2022-12-05T03:00:25.698Z,1004.36
2022-12-05T03:01:25.763Z,1004.37
2022-12-05T03:02:25.677Z,1004.37
2022-12-05T03:03:25.857Z,1004.38
2022-12-05T03:04:25.710Z,1004.35
2022-12-05T03:05:25.637Z,1004.31
2022-12-05T03:06:25.632Z,1004.37
2022-12-05T03:07:25.618Z,1004.36
2022-12-05T03:08:25.798Z,1004.39
2022-12-05T03:09:25.584Z,1004.42
2022-12-05T03:10:25.579Z,1004.40
2022-12-05T03:11:25.566Z,1004.42
2022-12-05T03:12:25.552Z,1004.42
2022-12-05T03:13:25.765Z,1004.39
2022-12-05T03:14:25.523Z,1004.34
2022-12-05T03:15:25.515Z,1004.40
2022-12-05T03:16:25.573Z,1004.35
2022-12-05T03:17:25.484Z,1004.38
2022-12-05T03:18:25.477Z,1004.35
2022-12-05T03:19:25.476Z,1004.38
2022-12-05T03:20:25.446Z,1004.37
2022-12-05T03:21:25.434Z,1004.41
2022-12-05T03:22:25.434Z,1004.39
2022-12-05T03:23:25.412Z,1004.41
2022-12-05T03:24:25.612Z,1004.45
2022-12-05T03:25:25.394Z,1004.40
2022-12-05T03:26:25.373Z,1004.41
2022-12-05T03:27:25.364Z,1004.39
2022-12-05T03:28:25.360Z,1004.37
2022-12-05T03:29:25.521Z,1004.39
2022-12-05T03:30:25.410Z,1004.32
2022-12-05T03:31:25.348Z,1004.40
2022-12-05T03:32:25.342Z,1004.31
2022-12-05T03:33:25.300Z,1004.34
2022-12-05T03:34:25.269Z,1004.32
2022-12-05T03:35:25.271Z,1004.33
2022-12-05T03:36:25.263Z,1004.28
2022-12-05T03:37:25.262Z,1004.36
2022-12-05T03:38:25.219Z,1004.27
2022-12-05T03:39:25.209Z,1004.30
2022-12-05T03:40:25.208Z,1004.32
2022-12-05T03:41:25.196Z,1004.31
2022-12-05T03:42:25.219Z,1004.30
2022-12-05T03:43:25.158Z,1004.28
2022-12-05T03:44:25.148Z,1004.34
2022-12-05T03:45:25.147Z,1004.26
2022-12-05T03:46:25.334Z,1004.26
2022-12-05T03:47:25.107Z,1004.27
2022-12-05T03:48:25.095Z,1004.34
2022-12-05T03:49:29.205Z,1004.37
2022-12-05T03:50:26.082Z,1004.33
2022-12-05T03:51:25.067Z,1004.32
2022-12-05T03:52:25.052Z,1004.33
2022-12-05T03:53:25.033Z,1004.33
2022-12-05T03:54:25.243Z,1004.36
2022-12-05T03:55:25.204Z,1004.36
2022-12-05T03:56:25.004Z,1004.36
2022-12-05T03:57:24.985Z,1004.35
2022-12-05T03:58:24.977Z,1004.30
2022-12-05T03:59:24.963Z,1004.29
2022-12-05T04:00:24.971Z,1004.29
2022-12-05T04:01:24.944Z,1004.26
2022-12-05T04:02:24.936Z,1004.25
2022-12-05T04:03:24.945Z,1004.30
2022-12-05T04:04:24.904Z,1004.38
2022-12-05T04:05:24.912Z,1004.32
2022-12-05T04:06:25.090Z,1004.24
2022-12-05T04:07:24.854Z,1004.26
2022-12-05T04:08:24.854Z,1004.25
2022-12-05T04:09:24.832Z,1004.31
2022-12-05T04:10:24.830Z,1004.38
2022-12-05T04:11:25.001Z,1004.38
2022-12-05T04:12:24.834Z,1004.38
2022-12-05T04:13:24.782Z,1004.38
2022-12-05T04:14:24.769Z,1004.38
2022-12-05T04:15:24.759Z,1004.39
2022-12-05T04:16:24.883Z,1004.45
2022-12-05T04:17:24.734Z,1004.41
2022-12-05T04:18:24.759Z,1004.42
2022-12-05T04:19:24.699Z,1004.39
2022-12-05T04:20:24.930Z,1004.42
2022-12-05T04:21:24.878Z,1004.43
2022-12-05T04:22:24.686Z,1004.43
2022-12-05T04:23:24.646Z,1004.43
2022-12-05T04:24:24.645Z,1004.39
2022-12-05T04:25:24.626Z,1004.42
2022-12-05T04:26:24.822Z,1004.43
2022-12-05T04:27:24.617Z,1004.44
2022-12-05T04:28:24.818Z,1004.49
2022-12-05T04:29:24.585Z,1004.42
2022-12-05T04:30:24.572Z,1004.43
2022-12-05T04:31:24.798Z,1004.40
2022-12-05T04:32:24.574Z,1004.43
2022-12-05T04:33:24.526Z,1004.40
2022-12-05T04:34:24.523Z,1004.48
2022-12-05T04:35:24.505Z,1004.47
2022-12-05T04:36:24.533Z,1004.48
2022-12-05T04:37:24.503Z,1004.43
2022-12-05T04:38:24.466Z,1004.49
2022-12-05T04:39:24.443Z,1004.49
2022-12-05T04:40:24.444Z,1004.53
2022-12-05T04:41:24.445Z,1004.50
2022-12-05T04:42:24.664Z,1004.52
2022-12-05T04:43:24.403Z,1004.55
2022-12-05T04:44:24.396Z,1004.49
2022-12-05T04:45:24.379Z,1004.54
2022-12-05T04:46:24.431Z,1004.54
2022-12-05T04:47:24.560Z,1004.47
2022-12-05T04:48:24.350Z,1004.52
2022-12-05T04:49:24.320Z,1004.53
2022-12-05T04:50:24.318Z,1004.51
2022-12-05T04:51:24.308Z,1004.46
2022-12-05T04:52:24.329Z,1004.44
2022-12-05T04:53:24.278Z,1004.49
2022-12-05T04:54:24.259Z,1004.53
2022-12-05T04:55:24.248Z,1004.54
2022-12-05T04:56:24.239Z,1004.56
2022-12-05T04:57:24.458Z,1004.52
2022-12-05T04:58:24.219Z,1004.50
2022-12-05T04:59:24.208Z,1004.47
2022-12-05T05:00:24.396Z,1004.48
2022-12-05T05:01:24.224Z,1004.51
2022-12-05T05:02:24.441Z,1004.48
2022-12-05T05:03:24.147Z,1004.59
2022-12-05T05:04:24.144Z,1004.55
2022-12-05T05:05:24.124Z,1004.50
2022-12-05T05:06:24.131Z,1004.52
2022-12-05T05:07:24.111Z,1004.51
2022-12-05T05:08:24.421Z,1004.56
2022-12-05T05:09:24.082Z,1004.49
2022-12-05T05:10:24.066Z,1004.50
2022-12-05T05:11:24.053Z,1004.52
2022-12-05T05:12:24.323Z,1004.50
2022-12-05T05:13:24.028Z,1004.47
2022-12-05T05:14:24.022Z,1004.51
2022-12-05T05:15:24.232Z,1004.51
2022-12-05T05:16:24.104Z,1004.50
2022-12-05T05:17:23.977Z,1004.56
2022-12-05T05:18:23.975Z,1004.56
2022-12-05T05:19:23.956Z,1004.47
2022-12-05T05:20:24.152Z,1004.51
2022-12-05T05:21:23.924Z,1004.50
2022-12-05T05:22:23.912Z,1004.53
2022-12-05T05:23:23.899Z,1004.52
2022-12-05T05:24:24.153Z,1004.53
2022-12-05T05:25:24.089Z,1004.51
2022-12-05T05:26:23.869Z,1004.58
2022-12-05T05:27:24.031Z,1004.55
2022-12-05T05:28:23.850Z,1004.54
2022-12-05T05:29:23.828Z,1004.57
2022-12-05T05:30:23.842Z,1004.55
2022-12-05T05:31:23.850Z,1004.55
2022-12-05T05:32:24.000Z,1004.54
2022-12-05T05:33:23.784Z,1004.56
2022-12-05T05:34:23.760Z,1004.58
2022-12-05T05:35:23.749Z,1004.56
2022-12-05T05:36:23.779Z,1004.60
2022-12-05T05:37:23.758Z,1004.61
2022-12-05T05:38:23.728Z,1004.59
2022-12-05T05:39:23.704Z,1004.66
2022-12-05T05:40:23.688Z,1004.64
2022-12-05T05:41:23.707Z,1004.64
2022-12-05T05:42:23.697Z,1004.62
2022-12-05T05:43:23.647Z,1004.63
2022-12-05T05:44:23.648Z,1004.66
2022-12-05T05:45:23.836Z,1004.59
2022-12-05T05:46:23.674Z,1004.62
2022-12-05T05:47:23.605Z,1004.64
2022-12-05T05:48:23.595Z,1004.61
2022-12-05T05:49:23.586Z,1004.70
2022-12-05T05:50:23.802Z,1004.70
2022-12-05T05:51:23.544Z,1004.62
2022-12-05T05:52:23.547Z,1004.66
2022-12-05T05:53:23.536Z,1004.63
2022-12-05T05:54:23.524Z,1004.62
2022-12-05T05:55:23.504Z,1004.65
2022-12-05T05:56:23.512Z,1004.67
2022-12-05T05:57:23.473Z,1004.67
2022-12-05T05:58:23.463Z,1004.68
2022-12-05T05:59:23.457Z,1004.58
2022-12-05T06:00:23.651Z,1004.68
2022-12-05T06:01:23.432Z,1004.71
2022-12-05T06:02:23.459Z,1004.73
2022-12-05T06:03:23.457Z,1004.71
2022-12-05T06:04:23.444Z,1004.73
2022-12-05T06:05:23.410Z,1004.76
2022-12-05T06:06:23.383Z,1004.73
2022-12-05T06:07:23.369Z,1004.73
2022-12-05T06:08:23.412Z,1004.74
2022-12-05T06:09:23.320Z,1004.74
2022-12-05T06:10:23.311Z,1004.74
2022-12-05T06:11:26.293Z,1004.74
2022-12-05T06:12:23.522Z,1004.71
2022-12-05T06:13:23.279Z,1004.72
2022-12-05T06:14:23.290Z,1004.78
2022-12-05T06:15:23.241Z,1004.78
2022-12-05T06:16:23.311Z,1004.72
2022-12-05T06:17:23.227Z,1004.83
2022-12-05T06:18:23.234Z,1004.81
2022-12-05T06:19:23.408Z,1004.83
2022-12-05T06:20:23.195Z,1004.78
2022-12-05T06:21:23.168Z,1004.87
2022-12-05T06:22:23.156Z,1004.82
2022-12-05T06:23:23.140Z,1004.89
2022-12-05T06:24:23.136Z,1004.93
2022-12-05T06:25:23.337Z,1004.89
2022-12-05T06:26:23.340Z,1004.84
2022-12-05T06:27:23.096Z,1004.88
2022-12-05T06:28:23.099Z,1004.87
2022-12-05T06:29:26.200Z,1004.88
2022-12-05T06:30:23.060Z,1004.89
2022-12-05T06:31:23.113Z,1004.92
2022-12-05T06:32:23.026Z,1004.90
2022-12-05T06:33:23.031Z,1004.92
2022-12-05T06:34:23.253Z,1004.93
2022-12-05T06:35:23.003Z,1004.90
2022-12-05T06:36:23.212Z,1004.98
2022-12-05T06:37:22.994Z,1004.97
2022-12-05T06:38:22.963Z,1004.99
2022-12-05T06:39:23.172Z,1004.96
2022-12-05T06:40:22.941Z,1004.96
2022-12-05T06:41:22.923Z,1004.98
2022-12-05T06:42:22.922Z,1004.97
2022-12-05T06:43:22.901Z,1004.98
2022-12-05T06:44:23.091Z,1004.98
2022-12-05T06:45:22.890Z,1004.99
2022-12-05T06:46:22.966Z,1004.97
2022-12-05T06:47:23.076Z,1005.00
2022-12-05T06:48:22.932Z,1005.05
2022-12-05T06:49:27.839Z,1005.02
2022-12-05T06:50:23.813Z,1005.03
2022-12-05T06:51:22.791Z,1004.99
2022-12-05T06:52:23.093Z,1005.01
2022-12-05T06:53:22.777Z,1005.04
2022-12-05T06:54:22.760Z,1004.97
2022-12-05T06:55:22.739Z,1005.07
2022-12-05T06:56:22.729Z,1005.04
2022-12-05T06:57:22.774Z,1004.99
2022-12-05T06:58:22.709Z,1005.02
2022-12-05T06:59:22.697Z,1005.00
2022-12-05T07:00:22.686Z,1005.00
2022-12-05T07:01:22.729Z,1005.04
2022-12-05T07:02:22.899Z,1005.06
2022-12-05T07:03:22.637Z,1004.99
2022-12-05T07:04:22.633Z,1005.07
2022-12-05T07:05:22.614Z,1005.03
2022-12-05T07:06:22.617Z,1005.05
2022-12-05T07:07:22.805Z,1005.02
2022-12-05T07:08:22.609Z,1005.08
2022-12-05T07:09:22.574Z,1005.10
2022-12-05T07:10:22.575Z,1005.10
2022-12-05T07:11:22.543Z,1005.12
2022-12-05T07:12:22.555Z,1005.11
2022-12-05T07:13:22.575Z,1005.10
2022-12-05T07:14:46.475Z,1005.10
2022-12-05T07:15:23.502Z,1005.07
2022-12-05T07:16:22.556Z,1005.20
2022-12-05T07:17:22.700Z,1005.16
2022-12-05T07:18:22.452Z,1005.21
2022-12-05T07:19:22.442Z,1005.22
2022-12-05T07:20:22.433Z,1005.26
2022-12-05T07:21:22.420Z,1005.25
2022-12-05T07:22:22.420Z,1005.23
2022-12-05T07:23:22.430Z,1005.25
2022-12-05T07:24:22.420Z,1005.28
2022-12-05T07:25:22.360Z,1005.33
2022-12-05T07:26:22.351Z,1005.30
2022-12-05T07:27:27.213Z,1005.24
2022-12-05T07:28:23.330Z,1005.30
2022-12-05T07:29:22.345Z,1005.32
2022-12-05T07:30:22.304Z,1005.29
2022-12-05T07:31:22.964Z,1005.28
2022-12-05T07:32:22.277Z,1005.32
2022-12-05T07:33:22.279Z,1005.28
2022-12-05T07:34:22.283Z,1005.32
2022-12-05T07:35:22.240Z,1005.33
2022-12-05T07:36:22.227Z,1005.34
2022-12-05T07:37:22.241Z,1005.29
2022-12-05T07:38:22.426Z,1005.31
2022-12-05T07:39:22.219Z,1005.32
2022-12-05T07:40:22.397Z,1005.30
2022-12-05T07:41:22.167Z,1005.25
2022-12-05T07:42:22.165Z,1005.30
2022-12-05T07:43:22.148Z,1005.33
2022-12-05T07:44:22.125Z,1005.36
2022-12-05T07:45:22.335Z,1005.37
2022-12-05T07:46:22.197Z,1005.32
2022-12-05T07:47:22.179Z,1005.35
2022-12-05T07:48:22.085Z,1005.35
2022-12-05T07:49:22.079Z,1005.43
2022-12-05T07:50:22.282Z,1005.36
2022-12-05T07:51:22.036Z,1005.36
2022-12-05T07:52:22.045Z,1005.35
2022-12-05T07:53:22.024Z,1005.34
2022-12-05T07:54:22.001Z,1005.41
2022-12-05T07:55:22.032Z,1005.37
2022-12-05T07:56:22.181Z,1005.35
2022-12-05T07:57:21.971Z,1005.34
2022-12-05T07:58:22.185Z,1005.33
2022-12-05T07:59:21.954Z,1005.43
2022-12-05T08:00:21.924Z,1005.41
2022-12-05T08:01:21.979Z,1005.43
2022-12-05T08:02:21.973Z,1005.36
2022-12-05T08:03:22.125Z,1005.41
2022-12-05T08:04:21.898Z,1005.40
2022-12-05T08:05:21.883Z,1005.40
2022-12-05T08:06:21.859Z,1005.46
2022-12-05T08:07:21.849Z,1005.50
2022-12-05T08:08:22.182Z,1005.53
2022-12-05T08:09:21.819Z,1005.53
2022-12-05T08:10:21.816Z,1005.57
2022-12-05T08:11:21.789Z,1005.55
2022-12-05T08:12:21.781Z,1005.51
2022-12-05T08:13:21.999Z,1005.53
2022-12-05T08:14:21.771Z,1005.58
2022-12-05T08:15:21.750Z,1005.50
2022-12-05T08:16:21.787Z,1005.55
2022-12-05T08:17:21.957Z,1005.59
2022-12-05T08:18:27.074Z,1005.55
2022-12-05T08:19:22.727Z,1005.58
2022-12-05T08:20:21.676Z,1005.65
2022-12-05T08:21:21.666Z,1005.57
2022-12-05T08:22:21.860Z,1005.63
2022-12-05T08:23:21.653Z,1005.60
2022-12-05T08:24:21.658Z,1005.64
2022-12-05T08:25:21.622Z,1005.60
2022-12-05T08:26:21.602Z,1005.62
2022-12-05T08:27:21.597Z,1005.70
2022-12-05T08:28:21.664Z,1005.65
2022-12-05T08:29:21.975Z,1005.70
2022-12-05T08:30:21.638Z,1005.68
2022-12-05T08:31:21.586Z,1005.73
2022-12-05T08:32:21.534Z,1005.78
2022-12-05T08:33:21.516Z,1005.75
2022-12-05T08:34:21.743Z,1005.78
2022-12-05T08:35:21.487Z,1005.76
2022-12-05T08:36:21.481Z,1005.75
2022-12-05T08:37:21.462Z,1005.76
2022-12-05T08:38:21.461Z,1005.70
2022-12-05T08:39:21.660Z,1005.77
2022-12-05T08:40:21.436Z,1005.74
2022-12-05T08:41:21.420Z,1005.76
2022-12-05T08:42:21.425Z,1005.80
2022-12-05T08:43:21.470Z,1005.84
2022-12-05T08:44:21.492Z,1005.85
2022-12-05T08:45:21.415Z,1005.82
2022-12-05T08:46:21.544Z,1005.85
2022-12-05T08:47:21.399Z,1005.85
2022-12-05T08:48:26.026Z,1005.91
2022-12-05T08:49:22.609Z,1005.90
2022-12-05T08:50:21.309Z,1005.89
2022-12-05T08:51:21.288Z,1005.93
2022-12-05T08:52:21.295Z,1005.93
2022-12-05T08:53:21.267Z,1005.90
2022-12-05T08:54:21.260Z,1005.95
2022-12-05T08:55:21.527Z,1005.91
2022-12-05T08:56:26.524Z,1005.98
2022-12-05T08:57:22.216Z,1005.92
2022-12-05T08:58:21.209Z,1005.99
2022-12-05T08:59:21.187Z,1006.01
2022-12-05T09:00:21.221Z,1005.97
2022-12-05T09:01:21.400Z,1005.98
2022-12-05T09:02:21.233Z,1005.98
2022-12-05T09:03:21.146Z,1005.96
2022-12-05T09:04:21.138Z,1005.98
2022-12-05T09:05:28.126Z,1005.96
2022-12-05T09:06:22.355Z,1006.02
2022-12-05T09:07:21.321Z,1006.02
2022-12-05T09:08:21.147Z,1006.04
2022-12-05T09:09:21.063Z,1005.99
2022-12-05T09:10:21.068Z,1005.97
2022-12-05T09:11:21.277Z,1006.05
2022-12-05T09:12:21.074Z,1005.99
2022-12-05T09:13:21.163Z,1006.01
2022-12-05T09:14:21.009Z,1006.05
2022-12-05T09:15:20.982Z,1006.04
2022-12-05T09:16:21.033Z,1006.08
2022-12-05T09:17:21.197Z,1006.10
2022-12-05T09:18:20.993Z,1006.05
2022-12-05T09:19:21.088Z,1006.14
2022-12-05T09:20:20.945Z,1006.13
2022-12-05T09:21:20.936Z,1006.04
2022-12-05T09:22:21.120Z,1006.11
2022-12-05T09:23:20.899Z,1006.09
2022-12-05T09:24:20.891Z,1006.20
2022-12-05T09:25:20.877Z,1006.10
2022-12-05T09:26:20.869Z,1006.11
2022-12-05T09:27:21.049Z,1006.09
2022-12-05T09:28:20.861Z,1006.11
2022-12-05T09:29:20.834Z,1006.13
2022-12-05T09:30:20.830Z,1006.13
2022-12-05T09:31:20.882Z,1006.10
2022-12-05T09:32:20.987Z,1006.11
2022-12-05T09:33:20.778Z,1006.19
2022-12-05T09:34:20.988Z,1006.18
2022-12-05T09:35:20.786Z,1006.19
2022-12-05T09:36:20.729Z,1006.21
2022-12-05T09:37:38.272Z,1006.13
2022-12-05T09:38:21.716Z,1006.14
2022-12-05T09:39:20.925Z,1006.15
2022-12-05T09:40:20.685Z,1006.18
2022-12-05T09:41:20.666Z,1006.12
2022-12-05T09:42:20.910Z,1006.09
2022-12-05T09:43:20.645Z,1006.10
2022-12-05T09:44:20.684Z,1006.15
2022-12-05T09:45:20.662Z,1006.10
2022-12-05T09:46:20.646Z,1006.08
2022-12-05T09:47:20.633Z,1006.05
2022-12-05T09:48:20.635Z,1006.12
2022-12-05T09:49:20.594Z,1006.08
2022-12-05T09:50:20.595Z,1006.11
2022-12-05T09:51:20.540Z,1006.10
2022-12-05T09:52:20.563Z,1006.16
2022-12-05T09:53:20.512Z,1006.08
2022-12-05T09:54:20.515Z,1006.16
2022-12-05T09:55:20.503Z,1006.13
2022-12-05T09:56:20.691Z,1006.15
2022-12-05T09:57:20.471Z,1006.15
2022-12-05T09:58:20.471Z,1006.13
2022-12-05T09:59:20.458Z,1006.11
2022-12-05T10:00:20.440Z,1006.11
2022-12-05T10:01:20.677Z,1006.12
2022-12-05T10:02:20.420Z,1006.13
2022-12-05T10:03:20.397Z,1006.08
2022-12-05T10:04:20.442Z,1006.10
2022-12-05T10:05:20.442Z,1006.13
2022-12-05T10:06:20.560Z,1006.13
2022-12-05T10:07:20.342Z,1006.11
2022-12-05T10:08:20.400Z,1006.10
2022-12-05T10:09:20.324Z,1006.15
2022-12-05T10:10:20.804Z,1006.08
2022-12-05T10:11:20.509Z,1006.11
2022-12-05T10:12:20.281Z,1006.17
2022-12-05T10:13:20.285Z,1006.18
2022-12-05T10:14:20.274Z,1006.08
2022-12-05T10:15:20.256Z,1006.07
2022-12-05T10:16:20.497Z,1006.08
2022-12-05T10:17:20.239Z,1006.15
2022-12-05T10:18:20.235Z,1006.17
2022-12-05T10:19:20.218Z,1006.13
2022-12-05T10:20:20.394Z,1006.08
2022-12-05T10:21:20.174Z,1006.06
2022-12-05T10:22:20.949Z,1006.08
2022-12-05T10:23:48.951Z,1006.09
2022-12-05T10:24:21.168Z,1006.08
2022-12-05T10:25:20.113Z,1006.12
2022-12-05T10:26:20.108Z,1006.03
2022-12-05T10:27:20.298Z,1006.07
2022-12-05T10:28:20.696Z,1006.15
2022-12-05T10:29:20.091Z,1006.13
2022-12-05T10:30:20.071Z,1006.08
2022-12-05T10:31:20.068Z,1006.12
2022-12-05T10:32:20.250Z,1006.10
2022-12-05T10:33:20.025Z,1006.14
2022-12-05T10:34:20.032Z,1006.16
2022-12-05T10:35:19.999Z,1006.21
2022-12-05T10:36:20.031Z,1006.16
2022-12-05T10:37:20.026Z,1006.20
2022-12-05T10:38:19.959Z,1006.12
2022-12-05T10:39:19.972Z,1006.17
2022-12-05T10:40:20.246Z,1006.18
2022-12-05T10:41:19.919Z,1006.17
2022-12-05T10:42:19.914Z,1006.15
2022-12-05T10:43:20.112Z,1006.18
2022-12-05T10:44:19.888Z,1006.19
2022-12-05T10:45:20.110Z,1006.14
2022-12-05T10:46:19.901Z,1006.15
2022-12-05T10:47:19.910Z,1006.12
2022-12-05T10:48:20.047Z,1006.15
2022-12-05T10:49:19.819Z,1006.18
2022-12-05T10:50:19.805Z,1006.19
2022-12-05T10:51:19.801Z,1006.19
2022-12-05T10:52:19.786Z,1006.09
2022-12-05T10:53:19.767Z,1006.17
2022-12-05T10:54:19.946Z,1006.19
2022-12-05T10:55:19.749Z,1006.16
2022-12-05T10:56:30.133Z,1006.17
2022-12-05T10:57:20.719Z,1006.11
2022-12-05T10:58:19.708Z,1006.15
2022-12-05T10:59:20.797Z,1006.18
2022-12-05T11:00:19.685Z,1006.20
2022-12-05T11:01:19.723Z,1006.15
2022-12-05T11:02:19.707Z,1006.20
2022-12-05T11:03:19.876Z,1006.14
2022-12-05T11:04:19.644Z,1006.13
2022-12-05T11:05:19.801Z,1006.16
2022-12-05T11:06:19.635Z,1006.12
2022-12-05T11:07:20.164Z,1006.16
2022-12-05T11:08:26.668Z,1006.10
2022-12-05T11:09:20.631Z,1006.05
2022-12-05T11:10:24.912Z,1006.06
2022-12-05T11:11:20.561Z,1006.03
2022-12-05T11:12:19.537Z,1006.07
2022-12-05T11:13:19.532Z,1006.06
2022-12-05T11:14:19.501Z,1006.08
2022-12-05T11:15:19.701Z,1006.01
2022-12-05T11:16:19.524Z,1006.06
2022-12-05T11:17:19.470Z,1006.06
2022-12-05T11:18:19.656Z,1005.94
2022-12-05T11:19:19.451Z,1006.06
2022-12-05T11:20:19.439Z,1006.03
2022-12-05T11:21:19.419Z,1005.98
2022-12-05T11:22:19.400Z,1006.05
2022-12-05T11:23:19.410Z,1006.04
2022-12-05T11:24:19.390Z,1005.98
2022-12-05T11:25:19.384Z,1006.04
2022-12-05T11:26:19.357Z,1005.98
2022-12-05T11:27:19.341Z,1006.00
2022-12-05T11:28:19.367Z,1006.07
2022-12-05T11:29:19.317Z,1005.99
2022-12-05T11:30:19.329Z,1005.97
2022-12-05T11:31:19.389Z,1005.99
2022-12-05T11:32:19.276Z,1005.92
2022-12-05T11:33:19.301Z,1005.97
2022-12-05T11:34:19.258Z,1006.02
2022-12-05T11:35:19.296Z,1006.04
2022-12-05T11:36:19.238Z,1006.06
2022-12-05T11:37:19.225Z,1006.04
2022-12-05T11:38:19.206Z,1006.05
2022-12-05T11:39:19.190Z,1006.04
2022-12-05T11:40:23.865Z,1006.03
2022-12-05T11:41:20.174Z,1005.98
2022-12-05T11:42:19.145Z,1005.99
2022-12-05T11:43:19.147Z,1005.87
2022-12-05T11:44:19.326Z,1005.95
2022-12-05T11:45:19.115Z,1005.94
2022-12-05T11:46:23.596Z,1005.90
2022-12-05T11:47:20.089Z,1005.96
2022-12-05T11:48:19.133Z,1005.95
2022-12-05T11:49:19.072Z,1005.97
2022-12-05T11:50:19.080Z,1006.00
2022-12-05T11:51:19.061Z,1005.90
2022-12-05T11:52:19.070Z,1005.96
2022-12-05T11:53:19.024Z,1005.97
2022-12-05T11:54:30.587Z,1005.94
2022-12-05T11:55:20.311Z,1005.89
2022-12-05T11:56:19.171Z,1005.95
2022-12-05T11:57:18.968Z,1005.89
2022-12-05T11:58:19.000Z,1005.91
2022-12-05T11:59:18.950Z,1005.99
2022-12-05T12:00:18.959Z,1005.91
2022-12-05T12:01:18.910Z,1005.90
2022-12-05T12:02:19.018Z,1005.96
2022-12-05T12:03:19.042Z,1005.94
2022-12-05T12:04:18.878Z,1005.87
2022-12-05T12:05:18.888Z,1005.95